Time;durP1;ratioP1;P1;durP2;ratioP2;P2;SDS_P1;SDS_P2;PMS_P1;PMS_P2;Temp;Humidity;BMP_temperature;BMP_pressure;BME280_temperature;BME280_humidity;BME280_pressure;Samples;Min_cycle;Max_cycle;Signal;HPM_P1;HPM_P2
2021/12/19 00:01:52;;;;;;;44.45;29.98;;;12.10;90.90;;;;;;5092231;28;20146;-68
2021/12/19 00:09:30;;;;;;;36.95;26.08;;;12.10;91.10;;;;;;5095568;28;20038;-68
2021/12/19 00:11:57;;;;;;;37.25;25.25;;;12.10;90.80;;;;;;5095422;28;20392;-68
2021/12/19 00:14:23;;;;;;;34.78;25.70;;;12.00;90.80;;;;;;5096103;28;20363;-68
2021/12/19 00:16:54;;;;;;;35.42;25.58;;;11.90;90.80;;;;;;5095688;28;20046;-68
2021/12/19 00:19:20;;;;;;;36.05;25.05;;;11.90;90.90;;;;;;5095736;28;20024;-68
2021/12/19 00:21:46;;;;;;;37.47;25.60;;;11.80;90.90;;;;;;5095708;28;20541;-67
2021/12/19 00:24:12;;;;;;;49.20;30.85;;;11.70;91.00;;;;;;5095972;28;20024;-68
2021/12/19 00:26:38;;;;;;;60.67;36.97;;;11.80;91.30;;;;;;5095783;28;20377;-67
2021/12/19 00:29:04;;;;;;;70.80;40.70;;;11.80;91.30;;;;;;5095731;28;20397;-67
2021/12/19 00:31:32;;;;;;;66.07;40.63;;;11.80;91.30;;;;;;5094574;28;20119;-68
2021/12/19 00:33:58;;;;;;;71.80;40.10;;;11.80;91.40;;;;;;5094813;28;20028;-68
2021/12/19 00:36:24;;;;;;;74.43;40.80;;;11.80;91.30;;;;;;5094340;28;20031;-68
2021/12/19 00:38:49;;;;;;;77.93;40.95;;;11.80;91.30;;;;;;5095740;28;20028;-65
2021/12/19 00:41:16;;;;;;;74.00;40.20;;;11.70;91.30;;;;;;5095508;28;20515;-66
2021/12/19 00:46:08;;;;;;;77.72;41.95;;;11.70;91.50;;;;;;5095267;28;20560;-61
2021/12/19 00:48:45;;;;;;;73.35;38.05;;;11.70;91.50;;;;;;5095293;28;20132;-66
2021/12/19 00:51:14;;;;;;;75.50;39.85;;;11.70;91.50;;;;;;5095219;28;20016;-69
2021/12/19 00:53:41;;;;;;;75.82;40.65;;;11.70;91.50;;;;;;5095319;28;20076;-68
2021/12/19 00:56:09;;;;;;;70.25;38.55;;;11.70;91.40;;;;;;5095415;28;20410;-69
2021/12/19 00:58:35;;;;;;;70.38;37.45;;;11.70;91.80;;;;;;5094991;28;20117;-68
2021/12/19 01:01:03;;;;;;;69.70;36.60;;;11.70;91.50;;;;;;5094934;28;20047;-68
2021/12/19 01:03:29;;;;;;;72.32;36.90;;;11.70;91.60;;;;;;5094961;28;20054;-68
2021/12/19 01:05:54;;;;;;;67.72;36.33;;;11.60;91.60;;;;;;5095345;28;20115;-68
2021/12/19 01:08:20;;;;;;;68.00;37.10;;;11.60;91.90;;;;;;5094925;28;20385;-67
2021/12/19 01:10:47;;;;;;;66.05;35.88;;;11.70;91.70;;;;;;5095234;28;20048;-69
2021/12/19 01:13:14;;;;;;;65.07;34.70;;;11.70;91.60;;;;;;5094586;28;20119;-68
2021/12/19 01:15:40;;;;;;;65.95;35.35;;;11.70;91.60;;;;;;5094812;28;20051;-69
2021/12/19 01:18:06;;;;;;;66.63;35.83;;;11.70;91.60;;;;;;5094699;28;20028;-68
2021/12/19 01:20:35;;;;;;;65.07;34.70;;;11.60;91.50;;;;;;5093571;28;20028;-69
2021/12/19 01:23:01;;;;;;;69.57;36.58;;;11.60;91.60;;;;;;5094574;28;20027;-68
2021/12/19 01:25:27;;;;;;;72.68;37.72;;;11.70;91.60;;;;;;5094754;28;20099;-68
2021/12/19 01:27:52;;;;;;;69.65;38.53;;;11.60;91.70;;;;;;5094762;28;20027;-67
2021/12/19 01:30:18;;;;;;;74.50;38.97;;;11.60;91.70;;;;;;5094310;28;20427;-68
2021/12/19 01:32:44;;;;;;;73.50;38.65;;;11.60;91.80;;;;;;5094579;28;20028;-67
2021/12/19 01:35:12;;;;;;;76.20;40.42;;;11.60;91.80;;;;;;5094271;28;20023;-68
2021/12/19 01:37:38;;;;;;;78.20;40.78;;;11.60;91.80;;;;;;5094714;28;20185;-69
2021/12/19 01:40:06;;;;;;;83.25;42.05;;;11.60;91.80;;;;;;5094273;28;20516;-68
2021/12/19 01:42:33;;;;;;;81.22;40.88;;;11.60;92.00;;;;;;5094612;28;20115;-68
2021/12/19 01:45:00;;;;;;;84.18;42.45;;;11.60;92.00;;;;;;5093926;28;20390;-68
2021/12/19 01:47:26;;;;;;;80.85;41.42;;;11.60;92.00;;;;;;5094324;28;20020;-68
2021/12/19 01:49:51;;;;;;;81.93;41.60;;;11.60;91.90;;;;;;5094174;28;20469;-68
2021/12/19 01:52:18;;;;;;;88.35;42.58;;;11.60;91.90;;;;;;5094190;28;20022;-69
2021/12/19 01:54:45;;;;;;;82.05;40.67;;;11.50;92.00;;;;;;5094204;28;20034;-69
2021/12/19 01:57:10;;;;;;;81.90;40.78;;;11.50;92.10;;;;;;5094070;28;20070;-69
2021/12/19 01:59:36;;;;;;;80.45;39.40;;;11.50;92.10;;;;;;5090403;28;20497;-68
2021/12/19 02:02:02;;;;;;;86.63;41.13;;;11.50;92.10;;;;;;5093027;28;20030;-68
2021/12/19 02:04:30;;;;;;;83.28;41.60;;;11.40;92.30;;;;;;5093035;28;20415;-68
2021/12/19 02:06:57;;;;;;;80.35;41.65;;;11.50;92.30;;;;;;5094035;28;20059;-69
2021/12/19 02:09:24;;;;;;;83.97;41.20;;;11.50;92.30;;;;;;5093817;28;20031;-68
2021/12/19 02:11:49;;;;;;;84.50;40.33;;;11.50;92.30;;;;;;5092905;28;20026;-69
2021/12/19 02:14:15;;;;;;;86.10;41.35;;;11.50;92.30;;;;;;5093129;28;20032;-69
2021/12/19 02:16:41;;;;;;;91.00;41.97;;;11.50;92.30;;;;;;5094030;28;20477;-66
2021/12/19 02:19:08;;;;;;;82.28;40.97;;;11.50;92.70;;;;;;5093446;28;20039;-68
2021/12/19 02:21:34;;;;;;;94.50;43.67;;;11.50;92.50;;;;;;5093765;28;20382;-69
2021/12/19 02:24:03;;;;;;;90.25;43.95;;;11.40;92.40;;;;;;5093687;28;20032;-68
2021/12/19 02:26:29;;;;;;;93.38;44.08;;;11.50;92.50;;;;;;5093416;28;20110;-69
2021/12/19 02:28:54;;;;;;;93.03;45.33;;;11.50;92.50;;;;;;5093286;28;20096;-68
2021/12/19 02:31:21;;;;;;;94.05;43.85;;;11.50;92.60;;;;;;5093244;28;20019;-68
2021/12/19 02:34:02;;;;;;;98.95;46.15;;;11.50;92.60;;;;;;5093575;28;20020;-69
2021/12/19 02:36:50;;;;;;;100.50;45.42;;;11.50;92.60;;;;;;5092113;28;20020;-68
2021/12/19 02:50:19;;;;;;;93.32;44.47;;;11.40;92.90;;;;;;5093230;28;20039;-69
2021/12/19 02:52:45;;;;;;;94.78;45.25;;;11.50;92.90;;;;;;5093343;28;20035;-69
2021/12/19 02:55:13;;;;;;;95.45;45.28;;;11.40;92.90;;;;;;5093178;28;20024;-68
2021/12/19 02:57:40;;;;;;;93.38;45.55;;;11.40;93.00;;;;;;5092843;28;20077;-68
2021/12/19 03:00:16;;;;;;;86.00;43.97;;;11.40;93.10;;;;;;5093053;28;20069;-69
2021/12/19 03:02:41;;;;;;;82.15;43.28;;;11.40;93.20;;;;;;5093319;28;20039;-69
2021/12/19 03:05:08;;;;;;;79.82;39.85;;;11.40;93.30;;;;;;5093130;28;20465;-69
2021/12/19 03:07:39;;;;;;;80.22;40.95;;;11.40;93.40;;;;;;5093060;28;20047;-69
2021/12/19 03:18:11;;;;;;;58.42;33.88;;;11.40;93.30;;;;;;5093079;28;20089;-67
2021/12/19 03:20:39;;;;;;;51.85;32.40;;;11.40;93.20;;;;;;5093017;28;20532;-69
2021/12/19 03:23:06;;;;;;;59.00;31.48;;;11.40;93.20;;;;;;5093107;28;20481;-69
2021/12/19 03:25:33;;;;;;;57.30;33.40;;;11.30;93.30;;;;;;5092992;28;20020;-69
2021/12/19 03:28:00;;;;;;;55.05;32.05;;;11.40;93.40;;;;;;5092917;28;20484;-69
2021/12/19 03:30:27;;;;;;;58.72;33.55;;;11.30;93.30;;;;;;5092670;28;20032;-68
2021/12/19 03:32:54;;;;;;;51.95;31.00;;;11.40;93.50;;;;;;5093130;28;20020;-68
2021/12/19 03:35:23;;;;;;;52.95;31.45;;;11.40;93.50;;;;;;5092724;28;20460;-69
2021/12/19 03:37:50;;;;;;;55.30;32.33;;;11.40;93.60;;;;;;5092730;28;20020;-68
2021/12/19 03:40:22;;;;;;;53.20;30.52;;;11.30;93.40;;;;;;5092547;28;20056;-68
2021/12/19 03:42:50;;;;;;;53.95;30.20;;;11.40;93.50;;;;;;5093591;28;20031;-69
2021/12/19 03:45:19;;;;;;;52.72;30.58;;;11.30;93.50;;;;;;5096882;28;20028;-69
2021/12/19 03:47:45;;;;;;;52.30;30.80;;;11.30;93.50;;;;;;5096626;28;20074;-69
2021/12/19 03:50:15;;;;;;;45.30;28.00;;;11.30;93.40;;;;;;5096504;28;20020;-68
2021/12/19 03:52:41;;;;;;;38.22;23.42;;;11.30;93.40;;;;;;5096402;28;20024;-68
2021/12/19 03:55:07;;;;;;;34.60;21.70;;;11.30;93.30;;;;;;5096421;28;20099;-69
2021/12/19 03:57:33;;;;;;;33.10;21.10;;;11.40;93.20;;;;;;5096307;28;20526;-68
2021/12/19 03:59:58;;;;;;;34.75;20.92;;;11.30;93.20;;;;;;5096485;28;20020;-68
2021/12/19 04:02:26;;;;;;;30.63;19.00;;;11.20;93.20;;;;;;5096266;28;20047;-68
2021/12/19 04:04:56;;;;;;;27.67;18.17;;;11.30;93.20;;;;;;5096334;28;20099;-67
2021/12/19 04:07:23;;;;;;;28.15;17.95;;;11.30;93.20;;;;;;5096150;28;20016;-68
2021/12/19 04:09:49;;;;;;;27.20;17.52;;;11.30;93.30;;;;;;5095947;28;20027;-65
2021/12/19 04:12:16;;;;;;;26.75;18.65;;;11.30;93.10;;;;;;5095904;28;20064;-68
2021/12/19 04:14:43;;;;;;;25.92;18.27;;;11.30;93.20;;;;;;5096183;28;20032;-66
2021/12/19 04:17:09;;;;;;;27.75;18.98;;;11.30;93.30;;;;;;5094782;28;20012;-62
2021/12/19 04:19:36;;;;;;;28.85;18.50;;;11.20;93.30;;;;;;5095728;28;20048;-62
2021/12/19 04:22:02;;;;;;;26.73;18.58;;;11.30;93.20;;;;;;5096085;28;20078;-61
2021/12/19 04:24:28;;;;;;;28.98;19.98;;;11.20;93.30;;;;;;5095667;28;20024;-61
2021/12/19 04:26:54;;;;;;;27.65;18.42;;;11.20;93.60;;;;;;5094538;28;20024;-60
2021/12/19 04:29:21;;;;;;;25.73;18.27;;;11.20;93.40;;;;;;5095765;28;20024;-61
2021/12/19 04:31:47;;;;;;;27.20;16.83;;;11.20;93.40;;;;;;5095860;28;20103;-64
2021/12/19 04:34:13;;;;;;;28.50;16.67;;;11.20;93.40;;;;;;5095880;28;20059;-61
2021/12/19 04:36:42;;;;;;;28.70;16.42;;;11.20;93.30;;;;;;5095735;28;20024;-62
2021/12/19 05:00:18;;;;;;;20.65;11.55;;;11.10;93.10;;;;;;5095446;28;20077;-67
2021/12/19 05:03:01;;;;;;;22.10;12.18;;;11.10;93.20;;;;;;5095278;28;20029;-68
2021/12/19 05:16:09;;;;;;;23.75;12.75;;;11.00;93.30;;;;;;5095134;28;20129;-64
2021/12/19 05:18:38;;;;;;;18.85;11.40;;;11.10;93.30;;;;;;5094772;28;20067;-69
2021/12/19 05:21:10;;;;;;;19.08;10.90;;;11.10;93.30;;;;;;5095123;28;20032;-68
2021/12/19 05:24:03;;;;;;;19.25;11.23;;;11.00;93.40;;;;;;5094566;28;20035;-68
2021/12/19 05:26:24;;;;;;;21.63;12.27;;;11.00;93.40;;;;;;5094657;28;20389;-69
2021/12/19 05:28:52;;;;;;;21.35;12.15;;;11.10;93.50;;;;;;5094721;28;20461;-68
2021/12/19 05:31:18;;;;;;;23.50;13.18;;;11.10;93.50;;;;;;5094865;28;20362;-66
2021/12/19 05:33:46;;;;;;;19.10;12.23;;;11.10;93.50;;;;;;5094832;28;20024;-70
2021/12/19 05:46:49;;;;;;;22.75;13.10;;;11.10;93.50;;;;;;5094518;28;20058;-71
2021/12/19 05:49:15;;;;;;;17.15;10.63;;;11.00;93.40;;;;;;5094287;28;20028;-68
2021/12/19 05:51:40;;;;;;;21.02;12.43;;;11.00;93.30;;;;;;5094144;28;20031;-70
2021/12/19 05:54:08;;;;;;;19.67;12.52;;;11.00;93.30;;;;;;5094238;28;20031;-69
2021/12/19 05:56:33;;;;;;;22.65;12.65;;;11.00;93.30;;;;;;5094346;28;20027;-69
2021/12/19 05:58:59;;;;;;;20.90;13.45;;;11.00;93.40;;;;;;5094135;28;20036;-68
2021/12/19 06:01:24;;;;;;;24.38;13.85;;;11.00;93.40;;;;;;5086036;28;20020;-69
2021/12/19 06:03:50;;;;;;;20.67;12.40;;;10.90;93.40;;;;;;5093773;28;20089;-69
2021/12/19 06:06:15;;;;;;;21.58;13.15;;;10.90;93.50;;;;;;5091546;28;20020;-68
2021/12/19 06:08:41;;;;;;;19.83;13.07;;;11.00;93.50;;;;;;5087515;28;20031;-70
2021/12/19 06:11:07;;;;;;;19.15;11.75;;;10.90;93.50;;;;;;5083480;28;20024;-68
2021/12/19 06:13:33;;;;;;;16.95;10.70;;;11.00;93.50;;;;;;5093793;28;20444;-68
2021/12/19 06:15:58;;;;;;;15.90;9.65;;;11.00;93.40;;;;;;5085463;28;20017;-69
2021/12/19 06:18:24;;;;;;;13.98;9.30;;;10.90;93.20;;;;;;5080650;28;20059;-69
2021/12/19 06:20:50;;;;;;;16.08;9.55;;;10.90;93.30;;;;;;5089561;28;20522;-68
2021/12/19 06:23:16;;;;;;;15.18;10.38;;;10.90;93.20;;;;;;5091900;28;20390;-66
2021/12/19 06:25:45;;;;;;;16.20;10.57;;;10.90;93.30;;;;;;5091760;28;20020;-68
2021/12/19 06:28:15;;;;;;;17.05;10.88;;;10.90;93.40;;;;;;5093405;28;20149;-67
2021/12/19 06:30:40;;;;;;;15.68;10.30;;;10.90;93.40;;;;;;5093431;28;20024;-69
2021/12/19 06:33:06;;;;;;;18.77;12.30;;;10.90;93.40;;;;;;5093689;28;20153;-69
2021/12/19 06:35:32;;;;;;;19.30;12.38;;;10.90;93.50;;;;;;5093142;28;20023;-67
2021/12/19 06:37:57;;;;;;;19.40;12.65;;;10.90;93.40;;;;;;5093311;28;20040;-68
2021/12/19 06:40:23;;;;;;;18.58;11.00;;;10.90;93.40;;;;;;5093427;28;20091;-69
2021/12/19 06:42:50;;;;;;;17.25;11.43;;;10.90;93.50;;;;;;5093656;28;20370;-69
2021/12/19 06:45:17;;;;;;;18.08;10.50;;;10.80;93.50;;;;;;5093319;28;20108;-69
2021/12/19 06:47:43;;;;;;;15.10;10.35;;;10.80;93.60;;;;;;5093660;28;20016;-67
2021/12/19 06:50:10;;;;;;;15.60;9.43;;;10.80;93.50;;;;;;5092989;28;20381;-67
2021/12/19 06:52:37;;;;;;;15.55;8.95;;;10.80;93.50;;;;;;5093373;28;20017;-67
2021/12/19 06:55:04;;;;;;;13.55;8.68;;;10.80;93.60;;;;;;5091987;28;20020;-69
2021/12/19 06:57:29;;;;;;;16.50;9.25;;;10.80;93.60;;;;;;5093261;28;20031;-69
2021/12/19 06:59:55;;;;;;;14.32;8.55;;;10.90;93.50;;;;;;5082053;28;20032;-68
2021/12/19 07:02:20;;;;;;;14.40;9.20;;;11.00;93.40;;;;;;5078350;28;20048;-68
2021/12/19 07:04:46;;;;;;;12.02;8.27;;;11.00;93.20;;;;;;5073951;28;20496;-68
2021/12/19 07:07:12;;;;;;;15.90;8.43;;;11.10;93.20;;;;;;5072688;28;20073;-68
2021/12/19 07:09:39;;;;;;;16.92;9.10;;;11.10;93.20;;;;;;5072692;28;20031;-64
2021/12/19 07:12:06;;;;;;;13.13;8.18;;;11.10;93.30;;;;;;5072439;28;20041;-67
2021/12/19 07:14:32;;;;;;;14.82;9.07;;;11.10;93.40;;;;;;5073571;28;20025;-68
2021/12/19 07:16:57;;;;;;;17.70;9.00;;;11.00;93.50;;;;;;5082864;28;20036;-68
2021/12/19 07:19:23;;;;;;;17.55;9.85;;;11.10;93.60;;;;;;5076412;28;20029;-68
2021/12/19 07:21:49;;;;;;;16.80;9.73;;;11.10;93.60;;;;;;5094121;28;20099;-68
2021/12/19 07:24:14;;;;;;;18.50;9.57;;;11.20;93.60;;;;;;5096906;28;20024;-67
2021/12/19 07:26:40;;;;;;;21.70;11.45;;;11.20;93.70;;;;;;5087397;28;20029;-68
2021/12/19 07:29:05;;;;;;;17.90;10.45;;;11.20;93.50;;;;;;5076254;28;20386;-68
2021/12/19 07:31:35;;;;;;;18.00;10.43;;;11.20;93.50;;;;;;5077255;28;20090;-68
2021/12/19 07:34:00;;;;;;;15.88;9.57;;;11.30;93.60;;;;;;5093862;28;20069;-67
2021/12/19 07:36:30;;;;;;;14.88;8.32;;;11.20;94.00;;;;;;5096557;28;20032;-66
2021/12/19 07:39:06;;;;;;;17.05;8.60;;;11.30;94.00;;;;;;5096481;28;20040;-68
2021/12/19 07:41:32;;;;;;;19.80;8.73;;;11.40;93.90;;;;;;5093618;28;20024;-68
2021/12/19 07:43:57;;;;;;;15.43;9.68;;;11.50;93.70;;;;;;5096006;28;20097;-68
2021/12/19 07:46:23;;;;;;;17.92;10.50;;;11.60;93.50;;;;;;5094815;28;20023;-68
2021/12/19 07:48:49;;;;;;;23.23;13.93;;;11.60;93.30;;;;;;5087288;28;20036;-67
2021/12/19 07:51:14;;;;;;;21.67;13.02;;;11.60;93.10;;;;;;5086822;28;20025;-66
2021/12/19 07:53:40;;;;;;;22.40;13.25;;;11.60;92.70;;;;;;5095178;28;20502;-66
2021/12/19 07:56:06;;;;;;;22.58;13.50;;;11.60;92.80;;;;;;5087256;28;20036;-61
2021/12/19 07:58:31;;;;;;;23.73;13.70;;;11.60;92.70;;;;;;5090752;28;20032;-62
2021/12/19 08:00:57;;;;;;;25.02;14.40;;;11.50;92.70;;;;;;5084976;28;20032;-68
2021/12/19 08:03:23;;;;;;;23.10;11.98;;;11.50;92.70;;;;;;5075601;28;20028;-62
2021/12/19 08:05:48;;;;;;;19.92;11.70;;;11.50;92.90;;;;;;5075818;28;20471;-62
2021/12/19 08:08:17;;;;;;;24.40;13.90;;;11.50;92.90;;;;;;5090559;28;20074;-68
2021/12/19 08:13:09;;;;;;;22.20;13.23;;;11.50;93.00;;;;;;5095639;28;20039;-63
2021/12/19 08:15:36;;;;;;;22.52;12.45;;;11.40;93.10;;;;;;5091655;28;20025;-61
2021/12/19 08:18:02;;;;;;;22.17;12.30;;;11.40;93.20;;;;;;5081538;28;20118;-62
2021/12/19 08:20:28;;;;;;;26.42;15.90;;;11.40;93.20;;;;;;5114807;28;20015;-63
2021/12/19 08:22:55;;;;;;;20.52;12.43;;;11.50;93.20;;;;;;5115998;28;20062;-65
2021/12/19 08:25:21;;;;;;;23.35;12.45;;;11.50;93.20;;;;;;5116264;28;20022;-63
2021/12/19 08:27:47;;;;;;;20.10;11.27;;;11.50;93.20;;;;;;5099662;28;20027;-63
2021/12/19 08:30:16;;;;;;;17.80;11.40;;;11.50;93.40;;;;;;5090464;28;20028;-67
2021/12/19 08:32:41;;;;;;;19.08;12.27;;;11.40;93.30;;;;;;5088484;28;20020;-61
2021/12/19 08:35:08;;;;;;;19.95;11.75;;;11.40;93.40;;;;;;5081015;28;20028;-65
2021/12/19 08:37:34;;;;;;;25.00;13.00;;;11.40;93.30;;;;;;5090187;28;20054;-67
2021/12/19 08:40:00;;;;;;;22.35;12.80;;;11.40;93.30;;;;;;5092577;28;20695;-66
2021/12/19 08:42:27;;;;;;;20.67;11.75;;;11.50;93.40;;;;;;5077503;28;20075;-67
2021/12/19 08:44:54;;;;;;;17.27;11.15;;;11.40;93.60;;;;;;5094294;28;20466;-68
2021/12/19 08:47:19;;;;;;;19.27;11.07;;;11.40;93.80;;;;;;5095451;28;20020;-68
2021/12/19 08:49:45;;;;;;;18.85;10.55;;;11.40;93.70;;;;;;5080867;28;20027;-66
2021/12/19 08:52:11;;;;;;;16.35;10.50;;;11.40;93.70;;;;;;5079055;28;20032;-68
2021/12/19 08:54:37;;;;;;;16.90;10.13;;;11.40;93.50;;;;;;5075776;28;20013;-68
2021/12/19 08:57:03;;;;;;;17.77;11.85;;;11.40;93.60;;;;;;5079152;28;20024;-69
2021/12/19 08:59:29;;;;;;;14.15;7.80;;;11.50;93.60;;;;;;5075187;28;20122;-68
2021/12/19 09:02:00;;;;;;;12.73;8.27;;;11.60;93.60;;;;;;5093315;28;20024;-69
2021/12/19 09:04:26;;;;;;;15.38;10.95;;;11.70;93.60;;;;;;5094702;28;20366;-68
2021/12/19 09:06:53;;;;;;;16.48;10.80;;;11.70;93.50;;;;;;5088231;28;20032;-68
2021/12/19 09:09:18;;;;;;;18.13;10.95;;;11.80;93.40;;;;;;5086950;28;20026;-67
2021/12/19 09:11:44;;;;;;;16.10;10.77;;;11.80;93.50;;;;;;5090496;28;20020;-66
2021/12/19 09:14:10;;;;;;;18.08;10.60;;;11.80;93.40;;;;;;5092942;28;20083;-69
2021/12/19 09:16:36;;;;;;;30.92;10.80;;;11.90;93.40;;;;;;5091358;28;20020;-68
2021/12/19 09:19:02;;;;;;;30.52;11.13;;;11.90;93.50;;;;;;5094337;28;20081;-68
2021/12/19 09:21:27;;;;;;;43.80;14.70;;;11.90;93.50;;;;;;5089175;28;20020;-68
2021/12/19 09:23:53;;;;;;;25.23;9.48;;;11.90;93.10;;;;;;5091730;28;20030;-68
2021/12/19 09:26:18;;;;;;;18.00;7.80;;;11.80;93.30;;;;;;5092342;28;20024;-68
2021/12/19 09:28:44;;;;;;;14.95;7.80;;;11.80;93.20;;;;;;5094218;28;20028;-68
2021/12/19 09:31:09;;;;;;;11.77;7.78;;;11.80;93.20;;;;;;5081737;28;20056;-70
2021/12/19 09:33:35;;;;;;;13.82;7.22;;;11.80;93.40;;;;;;5074006;28;20024;-69
2021/12/19 09:36:00;;;;;;;21.48;7.70;;;11.80;93.40;;;;;;5074096;28;20056;-72
2021/12/19 09:38:27;;;;;;;16.80;8.25;;;11.80;93.50;;;;;;5091085;28;20039;-69
2021/12/19 09:41:00;;;;;;;37.60;8.98;;;11.80;93.50;;;;;;5092089;28;20020;-66
2021/12/19 09:43:41;;;;;;;15.60;7.65;;;11.80;93.50;;;;;;5078366;28;20476;-68
2021/12/19 09:46:16;;;;;;;22.40;8.82;;;11.80;93.60;;;;;;5078276;28;20032;-66
2021/12/19 09:48:45;;;;;;;25.42;9.52;;;11.80;93.60;;;;;;5079940;28;20024;-66
2021/12/19 09:51:12;;;;;;;22.70;10.45;;;11.80;93.50;;;;;;5078890;28;20058;-69
2021/12/19 09:53:39;;;;;;;33.67;11.60;;;11.80;93.60;;;;;;5076640;28;20028;-60
2021/12/19 09:56:06;;;;;;;25.05;10.98;;;11.90;93.90;;;;;;5080267;28;20030;-67
2021/12/19 09:58:33;;;;;;;25.27;11.45;;;11.90;93.90;;;;;;5073626;28;20040;-64
2021/12/19 10:01:00;;;;;;;21.35;10.88;;;11.90;93.90;;;;;;5075173;28;20020;-66
2021/12/19 10:03:26;;;;;;;16.88;10.52;;;11.80;94.00;;;;;;5082598;28;20043;-66
2021/12/19 10:06:24;;;;;;;13.20;8.30;;;11.90;93.90;;;;;;5075236;28;20470;-65
2021/12/19 10:09:11;;;;;;;11.82;8.48;;;11.90;93.90;;;;;;5077914;28;20035;-62
2021/12/19 10:11:55;;;;;;;12.70;8.63;;;11.90;93.80;;;;;;5085482;28;20095;-64
2021/12/19 10:14:30;;;;;;;13.25;8.80;;;12.00;93.90;;;;;;5083083;28;20039;-65
2021/12/19 10:17:04;;;;;;;15.40;8.48;;;11.90;94.30;;;;;;5083178;28;20051;-67
2021/12/19 10:19:44;;;;;;;12.95;7.47;;;11.90;94.30;;;;;;5085552;28;20067;-66
2021/12/19 10:22:32;;;;;;;14.15;9.18;;;12.00;94.40;;;;;;5079519;28;20111;-67
2021/12/19 10:25:14;;;;;;;9.38;7.13;;;12.00;94.40;;;;;;5076556;28;20484;-64
2021/12/19 10:27:55;;;;;;;11.18;7.90;;;12.00;94.50;;;;;;5073637;28;20448;-66
2021/12/19 10:30:29;;;;;;;12.35;7.35;;;12.00;94.50;;;;;;5088932;28;20085;-58
2021/12/19 10:32:58;;;;;;;9.93;7.15;;;12.10;94.80;;;;;;5075252;28;20027;-67
2021/12/19 10:35:33;;;;;;;9.10;6.20;;;12.10;94.90;;;;;;5087861;28;20150;-66
2021/12/19 10:38:01;;;;;;;8.93;6.63;;;12.10;94.30;;;;;;5071678;28;20029;-60
2021/12/19 10:40:28;;;;;;;10.32;6.68;;;12.10;94.10;;;;;;5074470;28;20040;-66
2021/12/19 10:43:01;;;;;;;9.07;6.50;;;12.10;94.10;;;;;;5086484;28;20485;-63
2021/12/19 10:45:33;;;;;;;10.77;6.88;;;12.10;93.90;;;;;;5077208;28;20388;-59
2021/12/19 10:48:27;;;;;;;9.65;6.68;;;12.10;94.00;;;;;;5089116;28;20051;-71
2021/12/19 10:51:05;;;;;;;9.23;6.70;;;12.20;93.90;;;;;;5064408;28;20048;-61
2021/12/19 10:53:37;;;;;;;8.00;5.78;;;12.10;94.00;;;;;;5074890;28;20047;-69
2021/12/19 10:56:10;;;;;;;7.45;5.35;;;12.10;94.10;;;;;;5077693;28;20020;-63
2021/12/19 10:58:43;;;;;;;8.07;5.22;;;12.10;94.10;;;;;;5081738;28;20123;-66
2021/12/19 11:01:14;;;;;;;6.47;4.82;;;12.20;94.00;;;;;;5076792;28;20066;-66
2021/12/19 11:03:42;;;;;;;6.95;5.00;;;12.10;94.10;;;;;;5075314;28;20063;-63
2021/12/19 11:06:20;;;;;;;7.63;5.55;;;12.20;94.10;;;;;;5087504;28;20024;-65
2021/12/19 11:08:47;;;;;;;6.63;5.50;;;12.10;94.10;;;;;;5073738;28;20115;-59
2021/12/19 11:11:32;;;;;;;6.32;5.00;;;12.10;94.20;;;;;;5080875;28;20096;-63
2021/12/19 11:13:58;;;;;;;5.00;4.18;;;12.20;94.30;;;;;;5084157;28;20401;-62
2021/12/19 11:16:25;;;;;;;6.03;5.22;;;12.20;94.10;;;;;;5084939;28;20383;-59
2021/12/19 11:18:51;;;;;;;5.38;4.50;;;12.20;94.20;;;;;;5075587;28;20078;-62
2021/12/19 11:21:19;;;;;;;5.28;3.70;;;12.20;94.30;;;;;;5070656;28;20493;-66
2021/12/19 11:23:46;;;;;;;4.72;3.33;;;12.30;94.30;;;;;;5075779;28;20027;-67
2021/12/19 11:26:12;;;;;;;7.63;2.72;;;12.30;94.30;;;;;;5068740;28;20390;-69
2021/12/19 11:28:38;;;;;;;4.35;2.78;;;12.30;94.00;;;;;;5075516;28;20032;-67
2021/12/19 11:31:05;;;;;;;4.88;2.40;;;12.40;94.30;;;;;;5082397;28;20028;-69
2021/12/19 11:33:45;;;;;;;4.63;1.92;;;12.40;94.30;;;;;;5081176;28;20020;-64
2021/12/19 11:36:11;;;;;;;2.75;2.33;;;12.50;93.60;;;;;;5083703;28;20054;-66
2021/12/19 11:38:37;;;;;;;5.45;2.28;;;12.30;93.70;;;;;;5086842;28;20037;-67
2021/12/19 11:41:08;;;;;;;2.35;2.15;;;12.40;93.90;;;;;;5078484;28;20346;-64
2021/12/19 11:43:39;;;;;;;2.42;1.35;;;12.40;93.60;;;;;;5085436;28;20169;-70
2021/12/19 11:46:13;;;;;;;1.40;1.20;;;12.40;93.70;;;;;;5076301;28;20028;-72
2021/12/19 11:48:39;;;;;;;2.20;1.27;;;12.50;93.30;;;;;;5082901;28;20078;-59
2021/12/19 11:51:15;;;;;;;1.90;1.63;;;12.40;93.60;;;;;;5078002;28;20518;-64
2021/12/19 11:53:43;;;;;;;3.03;1.88;;;12.50;93.20;;;;;;5080343;28;20488;-71
2021/12/19 11:56:14;;;;;;;2.05;1.50;;;12.40;93.40;;;;;;5086519;28;20024;-67
2021/12/19 11:58:55;;;;;;;2.73;1.20;;;12.40;93.30;;;;;;5074548;28;20115;-70
2021/12/19 12:01:23;;;;;;;2.88;0.95;;;12.40;93.30;;;;;;5082583;28;20019;-71
2021/12/19 12:04:14;;;;;;;1.80;0.95;;;12.50;93.10;;;;;;5079305;28;20028;-69
2021/12/19 12:07:03;;;;;;;3.45;0.75;;;12.50;93.00;;;;;;5082833;28;20477;-67
2021/12/19 12:09:38;;;;;;;2.10;0.70;;;12.50;93.10;;;;;;5104115;28;20032;-70
2021/12/19 12:12:09;;;;;;;1.20;0.75;;;12.50;93.10;;;;;;5109006;27;20028;-70
2021/12/19 12:14:42;;;;;;;2.85;0.98;;;12.50;93.00;;;;;;5094722;28;20032;-65
2021/12/19 12:17:20;;;;;;;1.30;0.70;;;12.60;94.50;;;;;;5095167;28;20024;-71
2021/12/19 12:19:51;;;;;;;2.85;0.93;;;12.60;93.40;;;;;;5092666;28;20036;-70
2021/12/19 12:22:36;;;;;;;2.38;1.20;;;12.60;93.50;;;;;;5092670;28;20016;-67
2021/12/19 12:25:07;;;;;;;1.20;0.88;;;12.60;93.90;;;;;;5081951;28;20447;-61
2021/12/19 12:27:39;;;;;;;2.80;1.50;;;12.60;93.70;;;;;;5084318;28;20024;-66
2021/12/19 12:30:15;;;;;;;2.83;1.50;;;12.60;94.70;;;;;;5078159;28;20034;-67
2021/12/19 12:32:40;;;;;;;1.92;1.52;;;12.60;94.60;;;;;;5083795;28;20386;-70
2021/12/19 12:35:11;;;;;;;2.58;1.63;;;12.60;94.50;;;;;;5090689;28;20024;-71
2021/12/19 12:37:36;;;;;;;4.18;1.88;;;12.70;94.20;;;;;;5076735;28;20029;-69
2021/12/19 12:40:30;;;;;;;3.53;1.58;;;12.60;94.30;;;;;;5082665;28;20028;-70
2021/12/19 12:43:21;;;;;;;3.92;1.63;;;12.70;94.20;;;;;;5082688;28;20029;-63
2021/12/19 12:46:07;;;;;;;2.17;1.52;;;12.60;94.40;;;;;;5079032;28;20051;-66
2021/12/19 12:48:56;;;;;;;2.25;1.35;;;12.70;93.90;;;;;;5081173;28;20104;-68
2021/12/19 12:51:34;;;;;;;2.80;2.55;;;12.70;93.80;;;;;;5091817;28;20115;-67
2021/12/19 12:54:33;;;;;;;4.32;3.13;;;12.70;94.00;;;;;;5093412;28;20032;-69
2021/12/19 12:57:00;;;;;;;2.70;2.42;;;12.70;93.80;;;;;;5092091;28;20546;-69
2021/12/19 12:59:32;;;;;;;5.25;4.22;;;12.60;94.10;;;;;;5089323;28;20036;-64
2021/12/19 13:02:18;;;;;;;3.25;2.20;;;12.70;94.20;;;;;;5080996;28;20082;-70
2021/12/19 13:04:49;;;;;;;3.92;2.28;;;12.70;93.90;;;;;;5085330;28;20036;-67
2021/12/19 13:07:16;;;;;;;4.85;2.33;;;12.80;93.70;;;;;;5092118;28;20020;-67
2021/12/19 13:09:49;;;;;;;2.90;2.05;;;12.70;93.80;;;;;;5087400;28;20097;-68
2021/12/19 13:12:25;;;;;;;3.65;2.17;;;12.80;93.80;;;;;;5083815;28;20363;-66
2021/12/19 13:14:52;;;;;;;2.63;1.77;;;12.70;93.80;;;;;;5087911;28;20032;-66
2021/12/19 13:17:23;;;;;;;4.05;2.17;;;12.80;93.90;;;;;;5101494;28;20020;-66
2021/12/19 13:19:54;;;;;;;1.95;1.70;;;12.80;93.50;;;;;;5097786;28;20032;-66
2021/12/19 13:22:24;;;;;;;2.33;1.60;;;12.80;93.70;;;;;;5096526;28;21579;-67
2021/12/19 13:24:52;;;;;;;2.45;1.33;;;12.80;93.60;;;;;;5079338;28;20090;-66
2021/12/19 13:27:25;;;;;;;2.45;1.33;;;12.70;93.60;;;;;;5077767;28;20023;-66
2021/12/19 13:30:12;;;;;;;1.80;1.42;;;12.80;93.60;;;;;;5083512;28;20020;-66
2021/12/19 13:32:43;;;;;;;2.13;1.48;;;12.80;93.90;;;;;;5093773;28;20122;-67
2021/12/19 13:35:33;;;;;;;2.50;1.42;;;12.90;94.00;;;;;;5097521;28;20468;-68
2021/12/19 13:38:10;;;;;;;1.42;1.00;;;12.90;93.80;;;;;;5090170;28;20237;-66
2021/12/19 13:40:48;;;;;;;2.80;0.88;;;13.00;94.00;;;;;;5090243;28;20032;-66
2021/12/19 13:43:19;;;;;;;2.78;1.10;;;13.00;93.30;;;;;;5089538;28;20023;-65
2021/12/19 13:45:48;;;;;;;1.13;0.90;;;13.00;93.20;;;;;;5077753;28;20033;-65
2021/12/19 13:48:33;;;;;;;1.10;0.70;;;13.00;92.80;;;;;;5080696;28;20044;-65
2021/12/19 13:51:12;;;;;;;1.33;0.80;;;12.90;92.90;;;;;;5078761;28;20039;-66
2021/12/19 13:53:50;;;;;;;1.33;0.65;;;12.90;92.90;;;;;;5076317;28;20024;-67
2021/12/19 13:56:18;;;;;;;1.88;0.80;;;12.80;92.80;;;;;;5077212;28;20485;-66